Time;durP1;ratioP1;P1;durP2;ratioP2;P2;SDS_P1;SDS_P2;PMS_P1;PMS_P2;Temp;Humidity;BMP_temperature;BMP_pressure;BME280_temperature;BME280_humidity;BME280_pressure;Samples;Min_cycle;Max_cycle;Signal;HPM_P1;HPM_P2
2022/07/07 00:02:05;;;;;;;;;;;19.00;77.60;;;;;;5075670;28;19980;-75
2022/07/07 00:04:32;;;;;;;;;;;19.00;77.70;;;;;;5078059;28;19928;-75
2022/07/07 00:06:59;;;;;;;;;;;19.00;77.70;;;;;;5075488;28;19954;-78
2022/07/07 00:09:27;;;;;;;;;;;18.60;77.40;;;;;;5079677;28;19932;-74
2022/07/07 00:11:54;;;;;;;;;;;18.90;77.10;;;;;;5075249;28;19950;-74
2022/07/07 00:14:20;;;;;;;;;;;18.90;77.60;;;;;;5073120;28;20341;-73
2022/07/07 00:16:49;;;;;;;;;;;18.80;77.40;;;;;;5076563;28;19928;-73
2022/07/07 00:19:15;;;;;;;;;;;18.80;77.40;;;;;;5075222;28;19978;-73
2022/07/07 00:21:42;;;;;;;;;;;18.80;77.40;;;;;;5092516;28;19924;-74
2022/07/07 00:24:09;;;;;;;;;;;18.70;77.30;;;;;;5074691;28;19932;-74
2022/07/07 00:26:36;;;;;;;;;;;18.70;77.30;;;;;;5075067;28;19951;-73
2022/07/07 00:29:03;;;;;;;;;;;18.70;77.40;;;;;;5078530;28;19954;-74
2022/07/07 00:31:30;;;;;;;;;;;18.70;77.40;;;;;;5079067;28;19928;-74
2022/07/07 00:33:58;;;;;;;;;;;18.70;77.40;;;;;;5080702;28;19932;-74
2022/07/07 00:36:25;;;;;;;;;;;18.60;77.40;;;;;;5079370;28;19932;-73
2022/07/07 00:38:52;;;;;;;;;;;18.60;77.40;;;;;;5075591;28;19924;-74
2022/07/07 00:41:19;;;;;;;;;;;18.50;77.40;;;;;;5076857;28;19986;-74
2022/07/07 00:43:46;;;;;;;;;;;18.50;77.40;;;;;;5076713;28;19928;-74
2022/07/07 00:46:13;;;;;;;;;;;18.50;77.50;;;;;;5074146;28;19990;-74
2022/07/07 00:48:41;;;;;;;;;;;18.40;77.40;;;;;;5077071;28;19928;-73
2022/07/07 00:51:10;;;;;;;;;;;18.40;77.60;;;;;;5073641;28;19955;-73
2022/07/07 00:53:37;;;;;;;;;;;18.40;77.60;;;;;;5075675;28;19924;-74
2022/07/07 00:56:07;;;;;;;;;;;18.40;77.70;;;;;;5079900;28;20013;-73
2022/07/07 00:58:35;;;;;;;;;;;18.30;77.80;;;;;;5074990;28;20348;-73
2022/07/07 01:01:03;;;;;;;;;;;18.30;77.70;;;;;;5080140;28;19928;-73
2022/07/07 01:03:30;;;;;;;;;;;18.30;77.70;;;;;;5078834;28;19930;-74
2022/07/07 01:05:57;;;;;;;;;;;18.20;77.60;;;;;;5083356;28;20405;-73
2022/07/07 01:08:26;;;;;;;;;;;18.20;77.50;;;;;;5072257;28;19931;-73
2022/07/07 01:10:53;;;;;;;;;;;18.20;77.50;;;;;;5072283;28;19928;-73
2022/07/07 01:13:20;;;;;;;;;;;18.20;77.60;;;;;;5082148;28;20389;-73
2022/07/07 01:15:47;;;;;;;;;;;18.10;77.50;;;;;;5083262;28;19928;-73
2022/07/07 01:18:14;;;;;;;;;;;18.10;77.50;;;;;;5081025;28;20394;-74
2022/07/07 01:20:42;;;;;;;;;;;18.10;77.50;;;;;;5078820;28;19997;-74
2022/07/07 01:23:10;;;;;;;;;;;18.00;77.50;;;;;;5081624;28;19934;-73
2022/07/07 01:25:37;;;;;;;;;;;18.00;77.60;;;;;;5077198;28;19950;-73
2022/07/07 01:28:04;;;;;;;;;;;18.00;77.60;;;;;;5083954;28;20603;-74
2022/07/07 01:30:31;;;;;;;;;;;17.90;78.10;;;;;;5079544;28;19924;-74
2022/07/07 01:32:58;;;;;;;;;;;17.90;77.60;;;;;;5072895;28;19951;-74
2022/07/07 01:35:25;;;;;;;;;;;17.90;77.60;;;;;;5083389;28;19924;-73
2022/07/07 01:37:52;;;;;;;;;;;17.90;77.70;;;;;;5080491;28;19939;-73
2022/07/07 01:40:20;;;;;;;;;;;17.80;77.60;;;;;;5084822;28;20432;-73
2022/07/07 01:42:47;;;;;;;;;;;17.80;77.70;;;;;;5076267;28;20011;-73
2022/07/07 01:45:14;;;;;;;;;;;17.80;77.80;;;;;;5082308;28;19932;-73
2022/07/07 01:47:41;;;;;;;;;;;17.80;77.80;;;;;;5081097;28;20106;-74
2022/07/07 01:50:08;;;;;;;;;;;17.70;77.80;;;;;;5080620;28;19924;-76
2022/07/07 01:52:35;;;;;;;;;;;17.70;77.80;;;;;;5075779;28;19924;-75
2022/07/07 01:55:02;;;;;;;;;;;17.70;77.90;;;;;;5082957;28;19924;-73
2022/07/07 01:57:30;;;;;;;;;;;17.60;77.70;;;;;;5079858;28;19958;-73
2022/07/07 01:59:57;;;;;;;;;;;17.60;77.70;;;;;;5077986;28;20483;-74
2022/07/07 02:02:24;;;;;;;;;;;17.60;77.70;;;;;;5079308;28;19928;-73
2022/07/07 02:04:51;;;;;;;;;;;17.60;77.70;;;;;;5082990;28;21739;-74
2022/07/07 02:07:17;;;;;;;;;;;17.60;77.70;;;;;;5078030;28;20504;-73
2022/07/07 02:09:44;;;;;;;;;;;17.50;77.70;;;;;;5079305;28;19964;-74
2022/07/07 02:12:11;;;;;;;;;;;17.50;77.70;;;;;;5078654;28;19924;-74
2022/07/07 02:14:39;;;;;;;;;;;17.50;77.70;;;;;;5079846;28;19928;-74
2022/07/07 02:17:06;;;;;;;;;;;17.40;77.70;;;;;;5082692;22;19924;-76
2022/07/07 02:19:33;;;;;;;;;;;17.40;77.50;;;;;;5040477;28;20002;-76
2022/07/07 02:22:00;;;;;;;;;;;17.40;77.60;;;;;;5036118;28;20010;-75
2022/07/07 02:24:27;;;;;;;;;;;17.40;77.60;;;;;;5039282;28;19975;-76
2022/07/07 02:26:54;;;;;;;;;;;17.30;77.80;;;;;;5044153;28;20033;-75
2022/07/07 02:29:20;;;;;;;;;;;17.30;77.70;;;;;;5053128;28;19933;-76
2022/07/07 02:31:49;;;;;;;;;;;17.30;77.60;;;;;;5037135;28;22034;-76
2022/07/07 02:34:16;;;;;;;;;;;17.20;77.60;;;;;;5042262;28;20007;-76
2022/07/07 02:36:43;;;;;;;;;;;17.30;77.80;;;;;;5041136;28;19947;-76
2022/07/07 02:39:10;;;;;;;;;;;17.20;77.80;;;;;;5039135;28;20028;-76
2022/07/07 02:41:37;;;;;;;;;;;17.20;77.60;;;;;;5036913;28;20392;-76
2022/07/07 02:44:04;;;;;;;;;;;17.20;77.80;;;;;;5034753;28;19963;-76
2022/07/07 02:46:31;;;;;;;;;;;17.10;77.90;;;;;;5040156;28;19932;-76
2022/07/07 02:49:00;;;;;;;;;;;17.10;77.80;;;;;;5045760;28;20357;-78
2022/07/07 02:51:26;;;;;;;;;;;17.10;77.90;;;;;;5040345;28;19937;-76
2022/07/07 02:53:53;;;;;;;;;;;17.10;77.90;;;;;;5037311;28;19932;-76
2022/07/07 02:56:20;;;;;;;;;;;17.00;77.90;;;;;;5040183;28;19933;-78
2022/07/07 02:58:47;;;;;;;;;;;17.00;77.80;;;;;;5047214;28;20411;-79
2022/07/07 03:01:14;;;;;;;;;;;17.00;77.80;;;;;;5032929;28;19968;-76
2022/07/07 03:03:40;;;;;;;;;;;17.00;77.80;;;;;;5038947;28;19925;-76
2022/07/07 03:06:09;;;;;;;;;;;16.90;77.80;;;;;;5043909;28;19925;-76
2022/07/07 03:08:35;;;;;;;;;;;16.90;77.90;;;;;;5036979;28;19979;-77
2022/07/07 03:11:02;;;;;;;;;;;16.90;77.80;;;;;;5037479;28;20002;-76
2022/07/07 03:13:29;;;;;;;;;;;16.90;77.90;;;;;;5037934;28;19937;-77
2022/07/07 03:15:56;;;;;;;;;;;16.90;77.90;;;;;;5036180;28;19931;-79
2022/07/07 03:18:23;;;;;;;;;;;16.80;77.90;;;;;;5032608;28;19929;-79
2022/07/07 03:20:51;;;;;;;;;;;16.80;78.00;;;;;;5035932;28;19944;-79
2022/07/07 03:23:19;;;;;;;;;;;16.80;78.00;;;;;;5038242;28;20133;-80
2022/07/07 03:25:46;;;;;;;;;;;16.80;77.90;;;;;;5041779;28;20024;-79
2022/07/07 03:28:13;;;;;;;;;;;16.70;77.90;;;;;;5037639;28;19931;-80
2022/07/07 03:30:40;;;;;;;;;;;16.80;78.00;;;;;;5040880;28;19936;-78
2022/07/07 03:33:07;;;;;;;;;;;16.70;78.00;;;;;;5033957;28;19925;-80
2022/07/07 03:35:34;;;;;;;;;;;16.70;78.10;;;;;;5034341;28;22084;-79
2022/07/07 03:38:00;;;;;;;;;;;16.70;78.00;;;;;;5044355;28;19925;-79
2022/07/07 03:40:29;;;;;;;;;;;16.60;78.50;;;;;;5043859;28;19932;-79
2022/07/07 03:42:55;;;;;;;;;;;16.60;77.90;;;;;;5034802;28;20446;-79
2022/07/07 03:45:22;;;;;;;;;;;16.60;77.90;;;;;;5043257;28;19964;-79
2022/07/07 03:47:50;;;;;;;;;;;16.60;78.00;;;;;;5041275;28;20431;-79
2022/07/07 03:50:17;;;;;;;;;;;16.60;78.00;;;;;;5035904;28;19929;-79
2022/07/07 03:52:44;;;;;;;;;;;16.50;77.80;;;;;;5041868;28;20198;-79
2022/07/07 03:55:10;;;;;;;;;;;16.50;78.00;;;;;;5042165;28;20583;-78
2022/07/07 03:57:39;;;;;;;;;;;16.50;78.00;;;;;;5040660;28;19948;-78
2022/07/07 04:00:06;;;;;;;;;;;16.50;78.00;;;;;;5036959;28;19925;-78
2022/07/07 04:02:35;;;;;;;;;;;16.50;78.20;;;;;;5046308;28;19925;-78
2022/07/07 04:05:02;;;;;;;;;;;16.50;78.10;;;;;;5048929;28;19928;-78
2022/07/07 04:07:29;;;;;;;;;;;16.40;78.10;;;;;;5043793;28;19975;-79
2022/07/07 04:09:56;;;;;;;;;;;16.40;78.10;;;;;;5046338;28;19970;-78
2022/07/07 04:12:23;;;;;;;;;;;16.40;78.30;;;;;;5043328;28;19932;-78
2022/07/07 04:14:51;;;;;;;;;;;16.40;78.20;;;;;;5042579;28;20345;-78
2022/07/07 04:17:18;;;;;;;;;;;16.40;78.40;;;;;;5038927;28;19924;-78
2022/07/07 04:19:44;;;;;;;;;;;16.40;78.20;;;;;;5041034;28;19971;-79
2022/07/07 04:22:11;;;;;;;;;;;16.30;78.10;;;;;;5045597;28;19952;-79
2022/07/07 04:24:38;;;;;;;;;;;16.30;78.30;;;;;;5037655;28;19936;-78
2022/07/07 04:27:08;;;;;;;;;;;16.30;78.20;;;;;;5050294;28;19940;-79
2022/07/07 04:29:35;;;;;;;;;;;16.30;78.20;;;;;;5049112;28;19925;-79
2022/07/07 04:32:04;;;;;;;;;;;16.30;78.20;;;;;;5044835;28;19979;-78
2022/07/07 04:34:31;;;;;;;;;;;16.30;78.10;;;;;;5045104;28;20387;-78
2022/07/07 04:36:58;;;;;;;;;;;16.20;78.20;;;;;;5039011;28;20082;-79
2022/07/07 04:39:25;;;;;;;;;;;16.20;78.50;;;;;;5044884;28;19960;-78
2022/07/07 04:41:51;;;;;;;;;;;16.20;78.40;;;;;;5037012;28;19979;-79
2022/07/07 04:44:18;;;;;;;;;;;16.20;78.60;;;;;;5041374;28;20387;-78
2022/07/07 04:46:45;;;;;;;;;;;16.20;78.40;;;;;;5053382;28;19925;-78
2022/07/07 04:49:13;;;;;;;;;;;16.20;78.50;;;;;;5045091;28;19925;-78
2022/07/07 04:51:40;;;;;;;;;;;16.10;78.50;;;;;;5047652;28;19928;-79
2022/07/07 04:54:07;;;;;;;;;;;16.10;78.50;;;;;;5047560;28;19964;-77
2022/07/07 04:56:34;;;;;;;;;;;16.10;78.70;;;;;;5044000;28;19994;-80
2022/07/07 04:59:01;;;;;;;;;;;15.90;79.30;;;;;;5056578;28;19939;-78
2022/07/07 05:01:27;;;;;;;;;;;15.80;79.70;;;;;;5046153;28;19956;-79
2022/07/07 05:03:54;;;;;;;;;;;15.70;80.00;;;;;;5049113;28;19932;-80
2022/07/07 05:06:22;;;;;;;;;;;15.70;80.20;;;;;;5043624;28;19929;-79
2022/07/07 05:08:49;;;;;;;;;;;15.60;80.30;;;;;;5054371;28;19929;-78
2022/07/07 05:11:16;;;;;;;;;;;15.60;80.60;;;;;;5042489;28;19925;-80
2022/07/07 05:13:43;;;;;;;;;;;15.70;80.40;;;;;;5050733;28;20046;-78
2022/07/07 05:16:10;;;;;;;;;;;15.80;80.60;;;;;;5045543;28;20011;-79
2022/07/07 05:18:37;;;;;;;;;;;15.90;80.30;;;;;;5043859;28;20003;-79
2022/07/07 05:21:04;;;;;;;;;;;15.80;79.80;;;;;;5049095;28;19932;-78
2022/07/07 05:23:32;;;;;;;;;;;15.70;80.10;;;;;;5045096;28;19929;-78
2022/07/07 05:25:59;;;;;;;;;;;15.70;80.40;;;;;;5046301;28;20437;-79
2022/07/07 05:28:26;;;;;;;;;;;15.60;80.50;;;;;;5042940;28;19928;-78
2022/07/07 05:30:53;;;;;;;;;;;15.60;80.60;;;;;;5046677;28;20004;-79
2022/07/07 05:33:19;;;;;;;;;;;15.60;80.90;;;;;;5048780;28;19926;-78
2022/07/07 05:35:46;;;;;;;;;;;15.60;81.20;;;;;;5043102;28;19948;-78
2022/07/07 05:38:13;;;;;;;;;;;15.50;80.90;;;;;;5042439;28;20390;-79
2022/07/07 05:40:41;;;;;;;;;;;15.50;81.00;;;;;;5049700;28;20310;-78
2022/07/07 05:43:09;;;;;;;;;;;15.50;81.20;;;;;;5046201;28;20015;-79
2022/07/07 05:45:37;;;;;;;;;;;15.50;81.20;;;;;;5052436;28;19925;-79
2022/07/07 05:48:04;;;;;;;;;;;15.50;81.30;;;;;;5057113;28;19966;-79
2022/07/07 05:50:31;;;;;;;;;;;15.50;81.30;;;;;;5058761;28;19987;-79
2022/07/07 05:52:58;;;;;;;;;;;15.50;81.30;;;;;;5055432;28;19949;-80
2022/07/07 05:55:25;;;;;;;;;;;15.50;81.50;;;;;;5050476;28;19925;-79
2022/07/07 05:57:53;;;;;;;;;;;15.60;81.60;;;;;;5049638;28;19925;-80
2022/07/07 06:00:20;;;;;;;;;;;15.50;81.40;;;;;;5046964;28;19968;-80
2022/07/07 06:02:47;;;;;;;;;;;15.60;81.60;;;;;;5043188;28;19925;-80
2022/07/07 06:05:13;;;;;;;;;;;15.60;81.70;;;;;;5048983;28;19971;-79
2022/07/07 06:07:40;;;;;;;;;;;15.60;81.70;;;;;;5047152;28;20303;-79
2022/07/07 06:10:10;;;;;;;;;;;15.60;81.80;;;;;;5052667;28;19958;-81
2022/07/07 06:12:37;;;;;;;;;;;15.60;82.10;;;;;;5059869;28;20073;-78
2022/07/07 06:15:06;;;;;;;;;;;15.60;82.40;;;;;;5047456;28;19924;-78
2022/07/07 06:17:33;;;;;;;;;;;15.60;82.40;;;;;;5053289;28;19929;-78
2022/07/07 06:20:00;;;;;;;;;;;15.60;82.50;;;;;;5050092;28;19932;-79
2022/07/07 06:22:27;;;;;;;;;;;15.60;82.50;;;;;;5058728;28;20379;-78
2022/07/07 06:24:54;;;;;;;;;;;15.60;82.50;;;;;;5051996;28;19932;-78
2022/07/07 06:27:20;;;;;;;;;;;15.60;82.40;;;;;;5049858;28;19948;-78
2022/07/07 06:29:47;;;;;;;;;;;15.60;82.40;;;;;;5052900;28;19925;-78
2022/07/07 06:32:16;;;;;;;;;;;15.70;82.50;;;;;;5052971;28;20004;-78
2022/07/07 06:34:43;;;;;;;;;;;15.60;82.50;;;;;;5055021;28;19928;-78
2022/07/07 06:37:10;;;;;;;;;;;15.70;82.60;;;;;;5049127;28;20292;-78
2022/07/07 06:39:37;;;;;;;;;;;15.70;82.40;;;;;;5054391;28;19931;-78
2022/07/07 06:42:04;;;;;;;;;;;15.70;82.10;;;;;;5057575;28;19933;-79
2022/07/07 06:44:34;;;;;;;;;;;15.80;82.40;;;;;;5051023;28;19956;-79
2022/07/07 06:47:01;;;;;;;;;;;15.80;82.10;;;;;;5048953;28;19976;-78
2022/07/07 06:49:29;;;;;;;;;;;15.80;82.30;;;;;;5053223;28;20374;-78
2022/07/07 06:51:56;;;;;;;;;;;15.80;82.30;;;;;;5052444;28;19929;-78
2022/07/07 06:54:23;;;;;;;;;;;15.80;82.20;;;;;;5050432;28;19932;-78
2022/07/07 06:56:50;;;;;;;;;;;15.80;82.30;;;;;;5054641;28;20384;-79
2022/07/07 06:59:18;;;;;;;;;;;15.80;82.40;;;;;;5052149;28;19924;-78
2022/07/07 07:01:45;;;;;;;;;;;15.80;82.50;;;;;;5060607;28;19978;-78
2022/07/07 07:04:13;;;;;;;;;;;15.80;82.40;;;;;;5047992;28;19924;-78
2022/07/07 07:06:42;;;;;;;;;;;15.90;82.70;;;;;;5049330;28;19929;-78
2022/07/07 07:09:09;;;;;;;;;;;15.90;82.60;;;;;;5052732;28;19964;-78
2022/07/07 07:11:36;;;;;;;;;;;15.90;82.70;;;;;;5053948;28;19968;-78
2022/07/07 07:14:03;;;;;;;;;;;15.90;82.80;;;;;;5048730;28;21601;-78
2022/07/07 07:16:30;;;;;;;;;;;15.90;82.70;;;;;;5056123;28;19924;-78
2022/07/07 07:18:57;;;;;;;;;;;15.90;82.80;;;;;;5053181;28;19971;-78
2022/07/07 07:21:24;;;;;;;;;;;15.90;82.90;;;;;;5044952;28;19928;-78
2022/07/07 07:23:52;;;;;;;;;;;15.90;82.90;;;;;;5049953;28;20032;-78
2022/07/07 07:26:19;;;;;;;;;;;16.00;83.10;;;;;;5052342;28;19924;-78
2022/07/07 07:28:46;;;;;;;;;;;16.00;83.20;;;;;;5052863;28;19924;-78
2022/07/07 07:31:13;;;;;;;;;;;16.00;83.30;;;;;;5050539;28;19960;-78
2022/07/07 07:33:40;;;;;;;;;;;16.00;83.30;;;;;;5049062;28;19929;-78
2022/07/07 07:36:09;;;;;;;;;;;16.00;83.30;;;;;;5052089;28;19925;-78
2022/07/07 07:38:37;;;;;;;;;;;16.00;83.50;;;;;;5047670;28;19925;-78
2022/07/07 07:41:06;;;;;;;;;;;16.10;83.40;;;;;;5047172;28;19955;-78
2022/07/07 07:43:33;;;;;;;;;;;16.10;83.40;;;;;;5050328;28;20238;-79
2022/07/07 07:45:59;;;;;;;;;;;16.10;83.30;;;;;;5048619;28;19928;-78
2022/07/07 07:48:26;;;;;;;;;;;16.10;83.60;;;;;;5043388;28;19929;-79
2022/07/07 07:50:53;;;;;;;;;;;16.10;83.70;;;;;;5047578;28;19924;-78
2022/07/07 07:53:20;;;;;;;;;;;16.10;83.80;;;;;;5051349;28;20013;-79
2022/07/07 07:55:47;;;;;;;;;;;16.10;83.60;;;;;;5049746;28;19947;-78
2022/07/07 07:58:15;;;;;;;;;;;16.10;83.50;;;;;;5054595;28;19952;-78
2022/07/07 08:00:42;;;;;;;;;;;16.20;83.80;;;;;;5047649;28;19935;-78
2022/07/07 08:03:09;;;;;;;;;;;16.20;83.40;;;;;;5058185;28;19928;-78
2022/07/07 08:05:36;;;;;;;;;;;16.20;83.70;;;;;;5058501;28;19925;-78
2022/07/07 08:08:03;;;;;;;;;;;16.20;84.50;;;;;;5056726;28;19933;-78
2022/07/07 08:10:30;;;;;;;;;;;16.20;83.90;;;;;;5056129;28;19925;-79
2022/07/07 08:12:56;;;;;;;;;;;16.30;84.10;;;;;;5047110;28;19952;-78
2022/07/07 08:15:25;;;;;;;;;;;16.30;84.00;;;;;;5056891;28;19929;-78
2022/07/07 08:17:52;;;;;;;;;;;16.30;84.00;;;;;;5156258;22;19985;-74
2022/07/07 08:20:18;;;;;;;;;;;16.30;83.90;;;;;;5070762;28;20513;-75
2022/07/07 08:22:45;;;;;;;;;;;16.30;83.90;;;;;;5079602;28;19933;-76
2022/07/07 08:25:12;;;;;;;;;;;16.30;84.30;;;;;;5074587;28;19931;-76
2022/07/07 08:27:39;;;;;;;;;;;16.30;84.50;;;;;;5068168;28;19931;-76
2022/07/07 08:30:08;;;;;;;;;;;16.40;84.80;;;;;;5073451;28;19925;-73
2022/07/07 08:32:37;;;;;;;;;;;16.40;84.70;;;;;;5072460;28;19925;-74
2022/07/07 08:35:03;;;;;;;;;;;16.40;84.90;;;;;;5075212;28;20326;-75
2022/07/07 08:37:30;;;;;;;;;;;16.50;85.30;;;;;;5071406;28;20439;-75
2022/07/07 08:39:57;;;;;;;;;;;16.40;85.00;;;;;;5079891;28;19925;-75
2022/07/07 08:42:24;;;;;;;;;;;16.50;85.20;;;;;;5074417;28;19979;-76
2022/07/07 08:44:51;;;;;;;;;;;16.50;85.10;;;;;;5066813;28;19932;-75
2022/07/07 08:47:18;;;;;;;;;;;16.50;85.30;;;;;;5073323;28;20011;-73
2022/07/07 08:49:46;;;;;;;;;;;16.50;85.20;;;;;;5074786;28;19932;-73
2022/07/07 08:52:13;;;;;;;;;;;16.50;85.30;;;;;;5074706;28;19924;-74
2022/07/07 08:54:41;;;;;;;;;;;16.50;85.70;;;;;;5074859;28;19928;-73
2022/07/07 08:57:08;;;;;;;;;;;16.50;85.40;;;;;;5069125;28;19925;-74
2022/07/07 08:59:35;;;;;;;;;;;16.60;85.60;;;;;;5074654;28;19956;-74
2022/07/07 09:02:03;;;;;;;;;;;16.60;85.70;;;;;;5072772;28;19967;-74
2022/07/07 09:04:29;;;;;;;;;;;16.60;85.70;;;;;;5069590;28;20546;-74
2022/07/07 09:06:58;;;;;;;;;;;16.60;85.60;;;;;;5076032;28;19935;-74
2022/07/07 09:09:43;;;;;;;;;;;16.60;85.60;;;;;;5070776;28;19986;-73
2022/07/07 09:12:11;;;;;;;;;;;16.70;86.20;;;;;;5067375;28;19932;-74
2022/07/07 09:14:39;;;;;;;;;;;16.70;86.10;;;;;;5071104;28;19932;-75
2022/07/07 09:17:15;;;;;;;;;;;16.70;86.30;;;;;;5076815;28;19951;-74
2022/07/07 09:19:42;;;;;;;;;;;16.80;86.20;;;;;;5066835;28;20014;-73
2022/07/07 09:22:11;;;;;;;;;;;16.80;86.20;;;;;;5075792;28;19977;-75
2022/07/07 09:24:52;;;;;;;;;;;16.80;86.10;;;;;;5085400;28;19964;-74
2022/07/07 09:27:19;;;;;;;;;;;16.80;86.50;;;;;;5073621;28;20349;-73
2022/07/07 09:29:46;;;;;;;;;;;16.80;86.50;;;;;;5067811;28;19951;-74
2022/07/07 09:32:13;;;;;;;;;;;16.90;86.70;;;;;;5072558;28;19956;-76
2022/07/07 09:34:39;;;;;;;;;;;16.90;86.80;;;;;;5070264;28;19924;-75
2022/07/07 09:39:54;;;;;;;;;;;16.90;86.50;;;;;;5069042;28;20003;-75
2022/07/07 09:42:22;;;;;;;;;;;16.90;86.80;;;;;;5070604;28;19959;-75
2022/07/07 09:44:50;;;;;;;;;;;17.00;87.00;;;;;;5070084;28;19954;-75
2022/07/07 09:49:57;;;;;;;;;;;17.00;86.80;;;;;;5143454;22;19924;-75
2022/07/07 09:52:24;;;;;;;;;;;17.10;87.00;;;;;;5097009;28;19946;-75
2022/07/07 09:54:51;;;;;;;;;;;17.10;87.10;;;;;;5101302;27;19982;-74
2022/07/07 09:57:20;;;;;;;;;;;17.10;87.10;;;;;;5097180;28;20019;-75
2022/07/07 09:59:47;;;;;;;;;;;17.20;87.20;;;;;;5090226;28;19927;-75
2022/07/07 10:02:18;;;;;;;;;;;17.20;87.10;;;;;;5087387;28;20457;-75
2022/07/07 10:04:45;;;;;;;;;;;17.20;87.20;;;;;;5094036;28;19923;-74
2022/07/07 10:07:13;;;;;;;;;;;17.20;87.40;;;;;;5094253;28;20027;-74
2022/07/07 10:09:42;;;;;;;;;;;17.20;87.10;;;;;;5085747;28;19950;-74
2022/07/07 10:12:09;;;;;;;;;;;17.20;87.00;;;;;;5097265;28;19928;-75
2022/07/07 10:14:42;;;;;;;;;;;17.30;86.80;;;;;;5088016;28;19972;-75
2022/07/07 10:17:09;;;;;;;;;;;17.30;87.00;;;;;;5084771;28;19928;-75
2022/07/07 10:19:36;;;;;;;;;;;17.30;87.30;;;;;;5087249;28;19924;-74
2022/07/07 10:22:04;;;;;;;;;;;17.30;87.30;;;;;;5087203;28;19968;-75
2022/07/07 10:24:32;;;;;;;;;;;17.30;87.40;;;;;;5085580;28;20019;-75
2022/07/07 10:27:00;;;;;;;;;;;17.30;87.50;;;;;;5089359;28;19924;-75
2022/07/07 10:29:39;;;;;;;;;;;17.40;87.30;;;;;;5089576;28;19977;-74
2022/07/07 10:32:06;;;;;;;;;;;17.40;87.70;;;;;;5086862;28;19924;-75
2022/07/07 10:34:34;;;;;;;;;;;17.40;87.40;;;;;;5078843;28;19924;-74
2022/07/07 10:37:02;;;;;;;;;;;17.40;87.50;;;;;;5092175;28;19967;-74
2022/07/07 10:39:32;;;;;;;;;;;17.40;87.50;;;;;;5086285;28;20301;-74
2022/07/07 10:42:02;;;;;;;;;;;17.50;87.80;;;;;;5084477;28;19932;-74
2022/07/07 10:44:29;;;;;;;;;;;17.50;88.00;;;;;;5083454;28;20421;-75
2022/07/07 10:47:03;;;;;;;;;;;17.50;87.90;;;;;;5086282;28;19928;-75
2022/07/07 10:49:40;;;;;;;;;;;17.50;88.00;;;;;;5081530;28;19960;-74
2022/07/07 10:52:10;;;;;;;;;;;17.60;88.10;;;;;;5079413;28;20156;-74
2022/07/07 10:54:38;;;;;;;;;;;17.60;87.80;;;;;;5082482;28;19996;-73
2022/07/07 10:57:15;;;;;;;;;;;17.60;87.90;;;;;;5090769;28;19923;-76
2022/07/07 11:00:01;;;;;;;;;;;17.60;88.10;;;;;;5090000;28;19950;-74
2022/07/07 11:02:32;;;;;;;;;;;17.60;87.90;;;;;;5080434;28;20026;-74
2022/07/07 11:05:00;;;;;;;;;;;17.60;88.00;;;;;;5089380;28;19942;-75
2022/07/07 11:07:28;;;;;;;;;;;17.70;88.10;;;;;;5089866;28;20418;-77
2022/07/07 11:09:55;;;;;;;;;;;17.70;88.20;;;;;;5086520;28;19931;-77
2022/07/07 11:12:35;;;;;;;;;;;17.70;88.30;;;;;;5083379;28;19938;-75
2022/07/07 11:15:21;;;;;;;;;;;17.70;88.20;;;;;;5088746;28;19932;-74
2022/07/07 11:18:07;;;;;;;;;;;17.70;88.00;;;;;;5089580;28;20007;-74
2022/07/07 11:20:34;;;;;;;;;;;17.70;88.10;;;;;;5083227;28;19924;-75
2022/07/07 11:23:06;;;;;;;;;;;17.70;88.00;;;;;;5084118;28;19927;-75
2022/07/07 11:25:34;;;;;;;;;;;17.70;88.20;;;;;;5091378;28;19953;-74
2022/07/07 11:28:01;;;;;;;;;;;17.80;88.10;;;;;;5081973;28;19976;-74
2022/07/07 11:30:29;;;;;;;;;;;17.80;88.00;;;;;;5089105;28;19924;-73
2022/07/07 11:32:58;;;;;;;;;;;17.80;88.20;;;;;;5094077;28;19923;-75
2022/07/07 11:35:28;;;;;;;;;;;17.80;88.20;;;;;;5092910;28;20015;-73
2022/07/07 11:37:56;;;;;;;;;;;17.80;88.80;;;;;;5086455;28;20038;-74
2022/07/07 11:40:26;;;;;;;;;;;17.80;88.20;;;;;;5095647;28;19953;-73
2022/07/07 11:42:53;;;;;;;;;;;17.80;88.30;;;;;;5086724;28;19933;-75
2022/07/07 11:45:21;;;;;;;;;;;17.80;88.30;;;;;;5083531;28;19986;-76
2022/07/07 11:47:48;;;;;;;;;;;17.80;88.60;;;;;;5085870;28;19943;-74
2022/07/07 11:50:17;;;;;;;;;;;17.90;88.90;;;;;;5089919;28;19932;-74
2022/07/07 11:52:47;;;;;;;;;;;17.90;88.90;;;;;;5084656;28;19924;-75
2022/07/07 11:55:17;;;;;;;;;;;17.90;88.70;;;;;;5084796;28;20294;-78
2022/07/07 11:57:49;;;;;;;;;;;17.90;89.00;;;;;;5089422;28;19924;-73
2022/07/07 12:00:17;;;;;;;;;;;17.90;89.10;;;;;;5092890;28;19932;-74
2022/07/07 12:02:45;;;;;;;;;;;18.00;89.40;;;;;;5086715;28;19931;-76
2022/07/07 12:05:18;;;;;;;;;;;18.00;89.20;;;;;;5087990;28;20210;-75
2022/07/07 12:07:53;;;;;;;;;;;18.10;89.20;;;;;;5085813;28;19930;-73
2022/07/07 12:10:21;;;;;;;;;;;18.10;89.20;;;;;;5095664;28;19928;-76
2022/07/07 12:12:58;;;;;;;;;;;18.10;89.30;;;;;;5083040;28;19955;-73
2022/07/07 12:15:27;;;;;;;;;;;18.10;89.10;;;;;;5095419;28;19985;-74
2022/07/07 12:17:55;;;;;;;;;;;18.10;89.40;;;;;;5103532;28;19932;-74
2022/07/07 12:20:24;;;;;;;;;;;18.20;89.40;;;;;;5087541;28;20050;-75
2022/07/07 12:22:53;;;;;;;;;;;18.20;89.30;;;;;;5083343;28;20308;-76
2022/07/07 12:25:21;;;;;;;;;;;18.20;89.30;;;;;;5086702;28;19951;-74
2022/07/07 12:27:58;;;;;;;;;;;18.30;89.20;;;;;;5095261;28;19932;-74
2022/07/07 12:30:26;;;;;;;;;;;18.30;89.10;;;;;;5076715;28;19931;-75
2022/07/07 12:32:54;;;;;;;;;;;18.30;88.90;;;;;;5083082;28;19977;-76
2022/07/07 12:35:32;;;;;;;;;;;18.40;88.90;;;;;;5084510;28;20019;-74
2022/07/07 12:38:02;;;;;;;;;;;18.30;88.70;;;;;;5091218;28;19924;-77
2022/07/07 12:40:30;;;;;;;;;;;18.40;88.90;;;;;;5084856;28;20359;-73
2022/07/07 12:42:57;;;;;;;;;;;18.40;89.00;;;;;;5091152;28;20496;-73
2022/07/07 12:45:23;;;;;;;;;;;18.40;88.70;;;;;;5087743;28;20393;-75
2022/07/07 12:47:51;;;;;;;;;;;18.40;88.50;;;;;;5085750;28;19935;-76
2022/07/07 12:50:19;;;;;;;;;;;18.40;88.30;;;;;;5083547;28;19931;-73
2022/07/07 12:52:58;;;;;;;;;;;18.40;88.30;;;;;;5087426;28;19936;-73
2022/07/07 12:55:32;;;;;;;;;;;18.50;88.40;;;;;;5088935;28;19928;-73
2022/07/07 12:58:02;;;;;;;;;;;18.50;88.50;;;;;;5088972;28;19928;-73
2022/07/07 13:00:29;;;;;;;;;;;18.50;88.50;;;;;;5084278;28;19931;-73
2022/07/07 13:02:56;;;;;;;;;;;18.50;88.50;;;;;;5084591;28;19967;-72
2022/07/07 13:05:23;;;;;;;;;;;18.50;88.50;;;;;;5080059;28;19924;-73
2022/07/07 13:07:50;;;;;;;;;;;18.50;88.70;;;;;;5089515;28;19924;-73
2022/07/07 13:10:18;;;;;;;;;;;18.50;88.80;;;;;;5088105;28;20405;-73
2022/07/07 13:12:47;;;;;;;;;;;18.60;89.00;;;;;;5089430;28;19932;-73
2022/07/07 13:15:14;;;;;;;;;;;18.60;89.10;;;;;;5087007;28;19939;-73
2022/07/07 13:17:42;;;;;;;;;;;18.60;89.20;;;;;;5086664;28;19967;-73
2022/07/07 13:20:09;;;;;;;;;;;18.60;88.90;;;;;;5085947;28;20019;-73
2022/07/07 13:22:36;;;;;;;;;;;18.60;88.80;;;;;;5090388;28;19923;-73
2022/07/07 13:25:03;;;;;;;;;;;18.60;88.70;;;;;;5090126;28;20026;-73
2022/07/07 13:27:31;;;;;;;;;;;18.60;88.70;;;;;;5087047;28;19932;-73
2022/07/07 13:29:58;;;;;;;;;;;18.60;88.80;;;;;;5083022;28;19985;-74
2022/07/07 13:32:25;;;;;;;;;;;18.60;88.90;;;;;;5087488;28;20309;-73
2022/07/07 13:34:52;;;;;;;;;;;18.60;88.80;;;;;;5080870;28;19955;-74
2022/07/07 13:37:19;;;;;;;;;;;18.70;89.00;;;;;;5077812;28;19932;-75
2022/07/07 13:39:46;;;;;;;;;;;18.70;89.10;;;;;;5085417;28;19924;-73
2022/07/07 13:42:12;;;;;;;;;;;18.70;89.20;;;;;;5082843;28;19933;-74
2022/07/07 13:44:42;;;;;;;;;;;18.70;89.40;;;;;;5074348;28;19936;-73
2022/07/07 13:47:13;;;;;;;;;;;18.80;89.40;;;;;;5074949;28;20018;-73
2022/07/07 13:49:40;;;;;;;;;;;18.80;89.50;;;;;;5099787;28;19924;-74
2022/07/07 13:52:07;;;;;;;;;;;18.90;89.60;;;;;;5096931;28;19924;-74
2022/07/07 13:54:35;;;;;;;;;;;18.90;89.50;;;;;;5093089;28;19931;-73
2022/07/07 13:57:02;;;;;;;;;;;18.90;89.30;;;;;;5089929;28;19924;-73
2022/07/07 13:59:29;;;;;;;;;;;18.90;89.30;;;;;;5091238;28;19938;-73
2022/07/07 14:01:57;;;;;;;;;;;19.00;89.30;;;;;;5086452;28;20508;-73
2022/07/07 14:04:24;;;;;;;;;;;19.00;89.20;;;;;;5090477;28;19924;-73
2022/07/07 14:06:51;;;;;;;;;;;19.00;89.30;;;;;;5088540;28;20405;-73
2022/07/07 14:09:18;;;;;;;;;;;19.00;89.30;;;;;;5092364;28;20387;-73
2022/07/07 14:11:45;;;;;;;;;;;19.10;89.40;;;;;;5085136;28;19989;-73
2022/07/07 14:14:12;;;;;;;;;;;19.10;89.30;;;;;;5090002;28;20018;-73
2022/07/07 14:16:39;;;;;;;;;;;19.10;89.20;;;;;;5084027;28;20413;-73
2022/07/07 14:19:07;;;;;;;;;;;19.10;89.00;;;;;;5093216;28;19977;-73
2022/07/07 14:21:34;;;;;;;;;;;19.10;89.20;;;;;;5090267;28;19924;-73
2022/07/07 14:24:01;;;;;;;;;;;19.20;89.20;;;;;;5083263;28;20022;-74
2022/07/07 14:26:28;;;;;;;;;;;19.20;89.20;;;;;;5086707;28;19975;-73